sensor_id;sensor_type;location;lat;lon;timestamp;P1;durP1;ratioP1;P2;durP2;ratioP2
16577;SDS011;8401;52.528;13.340;2022-11-06T00:00:52;10.03;;;4.50;;
16577;SDS011;8401;52.528;13.340;2022-11-06T00:03:18;11.33;;;6.10;;
16577;SDS011;8401;52.528;13.340;2022-11-06T00:05:44;10.97;;;5.63;;
16577;SDS011;8401;52.528;13.340;2022-11-06T00:08:29;7.43;;;4.77;;
16577;SDS011;8401;52.528;13.340;2022-11-06T00:10:58;7.93;;;5.00;;
16577;SDS011;8401;52.528;13.340;2022-11-06T00:13:24;7.17;;;4.60;;
16577;SDS011;8401;52.528;13.340;2022-11-06T00:15:49;11.60;;;5.30;;
16577;SDS011;8401;52.528;13.340;2022-11-06T00:18:15;7.13;;;4.63;;
16577;SDS011;8401;52.528;13.340;2022-11-06T00:20:41;7.40;;;5.13;;
16577;SDS011;8401;52.528;13.340;2022-11-06T00:23:06;6.83;;;4.90;;
16577;SDS011;8401;52.528;13.340;2022-11-06T00:25:32;10.27;;;4.80;;
16577;SDS011;8401;52.528;13.340;2022-11-06T00:27:58;8.03;;;5.07;;
16577;SDS011;8401;52.528;13.340;2022-11-06T00:30:24;12.87;;;5.17;;
16577;SDS011;8401;52.528;13.340;2022-11-06T00:32:49;10.10;;;5.23;;
16577;SDS011;8401;52.528;13.340;2022-11-06T00:35:15;10.37;;;4.90;;
16577;SDS011;8401;52.528;13.340;2022-11-06T00:37:41;7.70;;;4.57;;
16577;SDS011;8401;52.528;13.340;2022-11-06T00:40:06;9.17;;;4.57;;
16577;SDS011;8401;52.528;13.340;2022-11-06T00:42:32;8.23;;;5.07;;
16577;SDS011;8401;52.528;13.340;2022-11-06T00:44:58;8.87;;;5.07;;
16577;SDS011;8401;52.528;13.340;2022-11-06T00:47:23;7.63;;;4.60;;
16577;SDS011;8401;52.528;13.340;2022-11-06T00:49:49;13.20;;;5.07;;
16577;SDS011;8401;52.528;13.340;2022-11-06T00:52:14;7.93;;;5.20;;
16577;SDS011;8401;52.528;13.340;2022-11-06T00:54:40;11.13;;;5.53;;
16577;SDS011;8401;52.528;13.340;2022-11-06T00:57:06;10.13;;;6.00;;
16577;SDS011;8401;52.528;13.340;2022-11-06T00:59:31;8.47;;;5.27;;
16577;SDS011;8401;52.528;13.340;2022-11-06T01:01:57;7.70;;;5.17;;
16577;SDS011;8401;52.528;13.340;2022-11-06T01:04:23;7.80;;;5.30;;
16577;SDS011;8401;52.528;13.340;2022-11-06T01:06:50;11.30;;;5.57;;
16577;SDS011;8401;52.528;13.340;2022-11-06T01:09:22;9.50;;;5.17;;
16577;SDS011;8401;52.528;13.340;2022-11-06T01:11:50;7.27;;;4.60;;
16577;SDS011;8401;52.528;13.340;2022-11-06T01:14:18;12.53;;;5.80;;
16577;SDS011;8401;52.528;13.340;2022-11-06T01:16:44;8.97;;;5.07;;
16577;SDS011;8401;52.528;13.340;2022-11-06T01:19:11;10.40;;;5.10;;
16577;SDS011;8401;52.528;13.340;2022-11-06T01:21:40;10.93;;;5.30;;
16577;SDS011;8401;52.528;13.340;2022-11-06T01:24:10;6.90;;;5.20;;
16577;SDS011;8401;52.528;13.340;2022-11-06T01:26:37;11.90;;;5.90;;
16577;SDS011;8401;52.528;13.340;2022-11-06T01:29:04;10.80;;;5.30;;
16577;SDS011;8401;52.528;13.340;2022-11-06T01:31:31;9.33;;;5.30;;
16577;SDS011;8401;52.528;13.340;2022-11-06T01:33:58;14.37;;;5.67;;
16577;SDS011;8401;52.528;13.340;2022-11-06T01:36:25;8.27;;;5.23;;
16577;SDS011;8401;52.528;13.340;2022-11-06T01:38:52;7.43;;;4.90;;
16577;SDS011;8401;52.528;13.340;2022-11-06T01:41:21;8.87;;;5.43;;
16577;SDS011;8401;52.528;13.340;2022-11-06T01:44:01;8.97;;;5.70;;
16577;SDS011;8401;52.528;13.340;2022-11-06T01:46:30;6.47;;;4.93;;
16577;SDS011;8401;52.528;13.340;2022-11-06T01:49:02;9.77;;;5.33;;
16577;SDS011;8401;52.528;13.340;2022-11-06T01:51:36;10.73;;;5.33;;
16577;SDS011;8401;52.528;13.340;2022-11-06T01:54:05;6.80;;;4.53;;
16577;SDS011;8401;52.528;13.340;2022-11-06T01:56:34;10.17;;;5.13;;
16577;SDS011;8401;52.528;13.340;2022-11-06T01:59:01;8.00;;;4.87;;
16577;SDS011;8401;52.528;13.340;2022-11-06T02:01:28;13.43;;;5.30;;
16577;SDS011;8401;52.528;13.340;2022-11-06T02:04:16;12.07;;;5.70;;
16577;SDS011;8401;52.528;13.340;2022-11-06T02:06:50;9.20;;;5.37;;
16577;SDS011;8401;52.528;13.340;2022-11-06T02:09:16;9.60;;;5.60;;
16577;SDS011;8401;52.528;13.340;2022-11-06T02:11:43;11.80;;;5.87;;
16577;SDS011;8401;52.528;13.340;2022-11-06T02:14:23;10.47;;;5.80;;
16577;SDS011;8401;52.528;13.340;2022-11-06T02:16:53;11.17;;;6.00;;
16577;SDS011;8401;52.528;13.340;2022-11-06T02:22:20;8.97;;;5.23;;
16577;SDS011;8401;52.528;13.340;2022-11-06T02:25:02;9.67;;;5.27;;
16577;SDS011;8401;52.528;13.340;2022-11-06T02:27:40;9.90;;;5.00;;
16577;SDS011;8401;52.528;13.340;2022-11-06T02:30:11;8.20;;;5.77;;
16577;SDS011;8401;52.528;13.340;2022-11-06T02:32:55;9.90;;;5.70;;
16577;SDS011;8401;52.528;13.340;2022-11-06T02:35:28;8.60;;;5.20;;
16577;SDS011;8401;52.528;13.340;2022-11-06T02:37:59;10.23;;;6.03;;
16577;SDS011;8401;52.528;13.340;2022-11-06T02:40:35;10.53;;;6.50;;
16577;SDS011;8401;52.528;13.340;2022-11-06T02:43:07;7.93;;;5.40;;
16577;SDS011;8401;52.528;13.340;2022-11-06T02:46:34;12.30;;;6.20;;
16577;SDS011;8401;52.528;13.340;2022-11-06T02:48:40;9.03;;;5.50;;
16577;SDS011;8401;52.528;13.340;2022-11-06T02:51:10;9.47;;;5.60;;
16577;SDS011;8401;52.528;13.340;2022-11-06T02:53:39;12.47;;;6.43;;
16577;SDS011;8401;52.528;13.340;2022-11-06T02:56:10;9.53;;;5.60;;
16577;SDS011;8401;52.528;13.340;2022-11-06T02:58:40;11.43;;;5.77;;
16577;SDS011;8401;52.528;13.340;2022-11-06T03:01:11;11.50;;;6.13;;
16577;SDS011;8401;52.528;13.340;2022-11-06T03:03:43;11.90;;;5.60;;
16577;SDS011;8401;52.528;13.340;2022-11-06T03:06:32;9.17;;;5.87;;
16577;SDS011;8401;52.528;13.340;2022-11-06T03:09:03;14.90;;;5.60;;
16577;SDS011;8401;52.528;13.340;2022-11-06T03:11:33;10.90;;;6.07;;
16577;SDS011;8401;52.528;13.340;2022-11-06T03:19:50;9.43;;;6.20;;
16577;SDS011;8401;52.528;13.340;2022-11-06T03:22:25;12.90;;;5.87;;
16577;SDS011;8401;52.528;13.340;2022-11-06T03:30:41;8.97;;;5.80;;
16577;SDS011;8401;52.528;13.340;2022-11-06T03:33:15;9.83;;;5.70;;
16577;SDS011;8401;52.528;13.340;2022-11-06T03:35:43;10.67;;;5.83;;
16577;SDS011;8401;52.528;13.340;2022-11-06T03:40:50;10.70;;;6.10;;
16577;SDS011;8401;52.528;13.340;2022-11-06T03:43:21;7.57;;;5.07;;
16577;SDS011;8401;52.528;13.340;2022-11-06T03:45:50;14.07;;;7.30;;
16577;SDS011;8401;52.528;13.340;2022-11-06T03:48:19;7.70;;;5.80;;
16577;SDS011;8401;52.528;13.340;2022-11-06T03:51:11;9.63;;;6.23;;
16577;SDS011;8401;52.528;13.340;2022-11-06T03:54:12;7.57;;;5.97;;
16577;SDS011;8401;52.528;13.340;2022-11-06T03:56:53;8.90;;;6.30;;
16577;SDS011;8401;52.528;13.340;2022-11-06T03:59:28;9.60;;;5.30;;
16577;SDS011;8401;52.528;13.340;2022-11-06T04:01:59;9.90;;;6.10;;
16577;SDS011;8401;52.528;13.340;2022-11-06T04:04:26;9.17;;;6.40;;
16577;SDS011;8401;52.528;13.340;2022-11-06T04:07:06;10.43;;;6.57;;
16577;SDS011;8401;52.528;13.340;2022-11-06T04:09:36;9.30;;;6.10;;
16577;SDS011;8401;52.528;13.340;2022-11-06T04:12:24;8.83;;;6.07;;
16577;SDS011;8401;52.528;13.340;2022-11-06T04:15:10;11.97;;;6.67;;
16577;SDS011;8401;52.528;13.340;2022-11-06T04:17:38;10.67;;;6.03;;
16577;SDS011;8401;52.528;13.340;2022-11-06T04:20:06;13.17;;;6.70;;
16577;SDS011;8401;52.528;13.340;2022-11-06T04:31:54;9.03;;;5.93;;
16577;SDS011;8401;52.528;13.340;2022-11-06T04:37:26;10.97;;;6.53;;
16577;SDS011;8401;52.528;13.340;2022-11-06T04:40:08;10.90;;;6.43;;
16577;SDS011;8401;52.528;13.340;2022-11-06T04:42:41;11.30;;;5.57;;
16577;SDS011;8401;52.528;13.340;2022-11-06T04:45:22;10.80;;;6.20;;
16577;SDS011;8401;52.528;13.340;2022-11-06T04:47:51;16.73;;;6.33;;
16577;SDS011;8401;52.528;13.340;2022-11-06T04:50:18;9.53;;;5.80;;
16577;SDS011;8401;52.528;13.340;2022-11-06T04:52:47;12.43;;;6.47;;
16577;SDS011;8401;52.528;13.340;2022-11-06T04:55:14;10.87;;;5.83;;
16577;SDS011;8401;52.528;13.340;2022-11-06T04:57:40;10.57;;;6.17;;
16577;SDS011;8401;52.528;13.340;2022-11-06T05:00:06;8.10;;;5.13;;
16577;SDS011;8401;52.528;13.340;2022-11-06T05:02:35;11.80;;;5.93;;
16577;SDS011;8401;52.528;13.340;2022-11-06T05:05:00;10.90;;;6.00;;
16577;SDS011;8401;52.528;13.340;2022-11-06T05:07:26;11.87;;;5.83;;
16577;SDS011;8401;52.528;13.340;2022-11-06T05:09:51;9.00;;;5.83;;
16577;SDS011;8401;52.528;13.340;2022-11-06T05:12:17;9.27;;;6.13;;
16577;SDS011;8401;52.528;13.340;2022-11-06T05:14:42;9.67;;;6.30;;
16577;SDS011;8401;52.528;13.340;2022-11-06T05:17:08;13.03;;;5.97;;
16577;SDS011;8401;52.528;13.340;2022-11-06T05:19:33;9.33;;;5.50;;
16577;SDS011;8401;52.528;13.340;2022-11-06T05:21:59;8.13;;;6.27;;
16577;SDS011;8401;52.528;13.340;2022-11-06T05:24:43;13.40;;;7.10;;
16577;SDS011;8401;52.528;13.340;2022-11-06T05:27:08;10.97;;;6.67;;
16577;SDS011;8401;52.528;13.340;2022-11-06T05:29:34;10.87;;;5.80;;
16577;SDS011;8401;52.528;13.340;2022-11-06T05:32:00;9.63;;;5.43;;
16577;SDS011;8401;52.528;13.340;2022-11-06T05:34:25;9.57;;;6.00;;
16577;SDS011;8401;52.528;13.340;2022-11-06T05:36:51;9.73;;;6.20;;
16577;SDS011;8401;52.528;13.340;2022-11-06T05:39:17;8.20;;;5.67;;
16577;SDS011;8401;52.528;13.340;2022-11-06T05:41:42;8.83;;;5.60;;
16577;SDS011;8401;52.528;13.340;2022-11-06T05:44:08;10.90;;;5.83;;
16577;SDS011;8401;52.528;13.340;2022-11-06T05:46:33;11.73;;;5.67;;
16577;SDS011;8401;52.528;13.340;2022-11-06T05:48:59;9.30;;;5.53;;
16577;SDS011;8401;52.528;13.340;2022-11-06T05:51:24;10.80;;;5.83;;
16577;SDS011;8401;52.528;13.340;2022-11-06T05:53:50;8.83;;;6.27;;
16577;SDS011;8401;52.528;13.340;2022-11-06T05:56:16;9.27;;;5.80;;
16577;SDS011;8401;52.528;13.340;2022-11-06T05:58:41;7.33;;;5.23;;
16577;SDS011;8401;52.528;13.340;2022-11-06T06:01:08;11.60;;;6.40;;
16577;SDS011;8401;52.528;13.340;2022-11-06T06:03:34;8.27;;;5.47;;
16577;SDS011;8401;52.528;13.340;2022-11-06T06:06:00;11.37;;;6.97;;
16577;SDS011;8401;52.528;13.340;2022-11-06T06:08:25;7.97;;;5.67;;
16577;SDS011;8401;52.528;13.340;2022-11-06T06:10:51;8.60;;;5.33;;
16577;SDS011;8401;52.528;13.340;2022-11-06T06:13:16;12.03;;;5.77;;
16577;SDS011;8401;52.528;13.340;2022-11-06T06:15:42;10.10;;;6.20;;
16577;SDS011;8401;52.528;13.340;2022-11-06T06:18:08;12.30;;;6.43;;
16577;SDS011;8401;52.528;13.340;2022-11-06T06:20:35;10.00;;;6.10;;
16577;SDS011;8401;52.528;13.340;2022-11-06T06:23:00;8.83;;;5.47;;
16577;SDS011;8401;52.528;13.340;2022-11-06T06:25:27;8.43;;;5.97;;
16577;SDS011;8401;52.528;13.340;2022-11-06T06:27:52;9.40;;;5.90;;
16577;SDS011;8401;52.528;13.340;2022-11-06T06:30:19;8.47;;;5.23;;
16577;SDS011;8401;52.528;13.340;2022-11-06T06:32:45;8.53;;;6.27;;
16577;SDS011;8401;52.528;13.340;2022-11-06T06:35:11;11.37;;;6.10;;
16577;SDS011;8401;52.528;13.340;2022-11-06T06:37:36;9.27;;;5.70;;
16577;SDS011;8401;52.528;13.340;2022-11-06T06:40:02;8.80;;;6.10;;
16577;SDS011;8401;52.528;13.340;2022-11-06T06:42:29;10.37;;;6.43;;
16577;SDS011;8401;52.528;13.340;2022-11-06T06:44:55;8.83;;;5.60;;
16577;SDS011;8401;52.528;13.340;2022-11-06T06:47:21;8.73;;;5.90;;
16577;SDS011;8401;52.528;13.340;2022-11-06T06:49:47;9.63;;;6.13;;
16577;SDS011;8401;52.528;13.340;2022-11-06T06:52:12;8.77;;;5.87;;
16577;SDS011;8401;52.528;13.340;2022-11-06T06:54:38;11.97;;;6.03;;
16577;SDS011;8401;52.528;13.340;2022-11-06T06:57:04;9.30;;;6.00;;
16577;SDS011;8401;52.528;13.340;2022-11-06T06:59:32;11.73;;;6.97;;
16577;SDS011;8401;52.528;13.340;2022-11-06T07:01:57;9.30;;;6.27;;
16577;SDS011;8401;52.528;13.340;2022-11-06T07:04:23;9.67;;;5.40;;
16577;SDS011;8401;52.528;13.340;2022-11-06T07:06:48;10.83;;;7.00;;
16577;SDS011;8401;52.528;13.340;2022-11-06T07:09:16;10.70;;;6.30;;
16577;SDS011;8401;52.528;13.340;2022-11-06T07:11:42;12.03;;;6.60;;
16577;SDS011;8401;52.528;13.340;2022-11-06T07:14:08;8.73;;;5.73;;
16577;SDS011;8401;52.528;13.340;2022-11-06T07:16:34;9.27;;;6.27;;
16577;SDS011;8401;52.528;13.340;2022-11-06T07:19:00;12.97;;;6.33;;
16577;SDS011;8401;52.528;13.340;2022-11-06T07:21:26;9.50;;;6.13;;
16577;SDS011;8401;52.528;13.340;2022-11-06T07:23:51;10.33;;;6.50;;
16577;SDS011;8401;52.528;13.340;2022-11-06T07:26:17;11.20;;;6.17;;
16577;SDS011;8401;52.528;13.340;2022-11-06T07:28:42;10.57;;;5.90;;
16577;SDS011;8401;52.528;13.340;2022-11-06T07:31:08;9.67;;;5.97;;
16577;SDS011;8401;52.528;13.340;2022-11-06T07:33:36;10.03;;;6.07;;
16577;SDS011;8401;52.528;13.340;2022-11-06T07:36:09;9.60;;;6.43;;
16577;SDS011;8401;52.528;13.340;2022-11-06T07:38:36;11.57;;;6.70;;
16577;SDS011;8401;52.528;13.340;2022-11-06T07:41:04;13.23;;;6.23;;
16577;SDS011;8401;52.528;13.340;2022-11-06T07:43:34;12.13;;;6.97;;
16577;SDS011;8401;52.528;13.340;2022-11-06T07:46:01;9.17;;;6.67;;
16577;SDS011;8401;52.528;13.340;2022-11-06T07:48:29;10.30;;;6.70;;
16577;SDS011;8401;52.528;13.340;2022-11-06T07:50:55;10.30;;;6.87;;
16577;SDS011;8401;52.528;13.340;2022-11-06T07:53:21;8.33;;;5.90;;
16577;SDS011;8401;52.528;13.340;2022-11-06T07:55:50;12.20;;;6.83;;
16577;SDS011;8401;52.528;13.340;2022-11-06T07:58:17;10.47;;;6.43;;
16577;SDS011;8401;52.528;13.340;2022-11-06T08:00:47;10.07;;;6.10;;
16577;SDS011;8401;52.528;13.340;2022-11-06T08:03:13;8.93;;;6.13;;
16577;SDS011;8401;52.528;13.340;2022-11-06T08:05:39;9.30;;;6.10;;
16577;SDS011;8401;52.528;13.340;2022-11-06T08:08:04;10.27;;;5.97;;
16577;SDS011;8401;52.528;13.340;2022-11-06T08:10:30;10.67;;;6.63;;
16577;SDS011;8401;52.528;13.340;2022-11-06T08:12:58;7.27;;;5.63;;
16577;SDS011;8401;52.528;13.340;2022-11-06T08:15:24;10.57;;;6.20;;
16577;SDS011;8401;52.528;13.340;2022-11-06T08:17:50;11.70;;;6.67;;
16577;SDS011;8401;52.528;13.340;2022-11-06T08:20:15;10.23;;;6.77;;
16577;SDS011;8401;52.528;13.340;2022-11-06T08:22:41;9.13;;;6.47;;
16577;SDS011;8401;52.528;13.340;2022-11-06T08:25:07;11.30;;;5.83;;
16577;SDS011;8401;52.528;13.340;2022-11-06T08:27:33;10.80;;;7.27;;
16577;SDS011;8401;52.528;13.340;2022-11-06T08:29:58;8.37;;;6.03;;
16577;SDS011;8401;52.528;13.340;2022-11-06T08:32:24;10.93;;;6.00;;
16577;SDS011;8401;52.528;13.340;2022-11-06T08:34:49;9.33;;;6.17;;
16577;SDS011;8401;52.528;13.340;2022-11-06T08:37:15;11.80;;;6.53;;
16577;SDS011;8401;52.528;13.340;2022-11-06T08:39:40;10.73;;;6.37;;
16577;SDS011;8401;52.528;13.340;2022-11-06T08:42:08;10.20;;;6.93;;
16577;SDS011;8401;52.528;13.340;2022-11-06T08:44:33;12.80;;;7.50;;
16577;SDS011;8401;52.528;13.340;2022-11-06T08:46:59;8.47;;;6.33;;
16577;SDS011;8401;52.528;13.340;2022-11-06T08:49:25;10.80;;;6.63;;
16577;SDS011;8401;52.528;13.340;2022-11-06T08:51:50;9.40;;;6.10;;
16577;SDS011;8401;52.528;13.340;2022-11-06T08:54:16;10.37;;;6.47;;
16577;SDS011;8401;52.528;13.340;2022-11-06T08:56:41;13.57;;;6.30;;
16577;SDS011;8401;52.528;13.340;2022-11-06T08:59:07;10.93;;;6.70;;
16577;SDS011;8401;52.528;13.340;2022-11-06T09:01:32;8.57;;;5.70;;
16577;SDS011;8401;52.528;13.340;2022-11-06T09:03:58;9.70;;;6.40;;
16577;SDS011;8401;52.528;13.340;2022-11-06T09:06:24;13.83;;;6.93;;
16577;SDS011;8401;52.528;13.340;2022-11-06T09:08:49;11.63;;;7.17;;
16577;SDS011;8401;52.528;13.340;2022-11-06T09:11:15;10.37;;;6.20;;
16577;SDS011;8401;52.528;13.340;2022-11-06T09:13:41;9.27;;;7.00;;
16577;SDS011;8401;52.528;13.340;2022-11-06T09:16:06;10.03;;;6.07;;
16577;SDS011;8401;52.528;13.340;2022-11-06T09:18:32;9.73;;;6.83;;
16577;SDS011;8401;52.528;13.340;2022-11-06T09:20:58;10.40;;;6.63;;
16577;SDS011;8401;52.528;13.340;2022-11-06T09:23:24;8.33;;;5.43;;
16577;SDS011;8401;52.528;13.340;2022-11-06T09:25:49;9.03;;;5.63;;
16577;SDS011;8401;52.528;13.340;2022-11-06T09:28:15;10.10;;;6.03;;
16577;SDS011;8401;52.528;13.340;2022-11-06T09:30:41;9.87;;;6.80;;
16577;SDS011;8401;52.528;13.340;2022-11-06T09:33:07;16.53;;;10.77;;
16577;SDS011;8401;52.528;13.340;2022-11-06T09:35:33;10.40;;;5.90;;
16577;SDS011;8401;52.528;13.340;2022-11-06T09:37:59;9.40;;;5.57;;
16577;SDS011;8401;52.528;13.340;2022-11-06T09:40:30;9.07;;;6.07;;
16577;SDS011;8401;52.528;13.340;2022-11-06T09:45:48;8.07;;;5.80;;
16577;SDS011;8401;52.528;13.340;2022-11-06T09:48:20;7.83;;;5.70;;
16577;SDS011;8401;52.528;13.340;2022-11-06T09:56:35;8.00;;;5.77;;
16577;SDS011;8401;52.528;13.340;2022-11-06T09:59:04;8.53;;;6.10;;
16577;SDS011;8401;52.528;13.340;2022-11-06T10:01:42;10.70;;;6.00;;
16577;SDS011;8401;52.528;13.340;2022-11-06T10:04:55;9.27;;;5.23;;
16577;SDS011;8401;52.528;13.340;2022-11-06T10:07:30;7.20;;;4.73;;
16577;SDS011;8401;52.528;13.340;2022-11-06T10:10:03;6.10;;;4.37;;
16577;SDS011;8401;52.528;13.340;2022-11-06T10:12:52;9.37;;;5.27;;
16577;SDS011;8401;52.528;13.340;2022-11-06T10:16:08;7.63;;;4.80;;
16577;SDS011;8401;52.528;13.340;2022-11-06T10:23:45;7.77;;;4.63;;
16577;SDS011;8401;52.528;13.340;2022-11-06T10:26:21;6.40;;;4.60;;
16577;SDS011;8401;52.528;13.340;2022-11-06T10:29:06;8.33;;;4.73;;
16577;SDS011;8401;52.528;13.340;2022-11-06T10:31:58;7.20;;;4.70;;
16577;SDS011;8401;52.528;13.340;2022-11-06T10:34:40;7.00;;;4.60;;
16577;SDS011;8401;52.528;13.340;2022-11-06T10:37:28;8.20;;;6.17;;
16577;SDS011;8401;52.528;13.340;2022-11-06T10:40:03;8.30;;;4.80;;
16577;SDS011;8401;52.528;13.340;2022-11-06T10:42:33;9.37;;;4.97;;
16577;SDS011;8401;52.528;13.340;2022-11-06T10:45:16;8.67;;;6.13;;
16577;SDS011;8401;52.528;13.340;2022-11-06T10:47:47;7.63;;;5.00;;
16577;SDS011;8401;52.528;13.340;2022-11-06T10:50:20;5.07;;;4.03;;
16577;SDS011;8401;52.528;13.340;2022-11-06T10:52:52;9.63;;;5.13;;
16577;SDS011;8401;52.528;13.340;2022-11-06T10:55:38;5.87;;;4.47;;
16577;SDS011;8401;52.528;13.340;2022-11-06T11:00:31;7.10;;;4.47;;
16577;SDS011;8401;52.528;13.340;2022-11-06T11:03:02;7.00;;;4.73;;
16577;SDS011;8401;52.528;13.340;2022-11-06T11:05:40;5.33;;;4.10;;
16577;SDS011;8401;52.528;13.340;2022-11-06T11:13:42;8.90;;;4.97;;
16577;SDS011;8401;52.528;13.340;2022-11-06T11:16:20;5.63;;;4.10;;
16577;SDS011;8401;52.528;13.340;2022-11-06T11:21:55;11.43;;;4.87;;
16577;SDS011;8401;52.528;13.340;2022-11-06T11:24:23;8.43;;;4.87;;
16577;SDS011;8401;52.528;13.340;2022-11-06T11:26:56;9.90;;;4.33;;
16577;SDS011;8401;52.528;13.340;2022-11-06T11:29:29;6.47;;;3.83;;
16577;SDS011;8401;52.528;13.340;2022-11-06T11:32:14;9.03;;;4.60;;
16577;SDS011;8401;52.528;13.340;2022-11-06T11:34:43;6.27;;;4.10;;
16577;SDS011;8401;52.528;13.340;2022-11-06T11:37:22;6.57;;;4.33;;
16577;SDS011;8401;52.528;13.340;2022-11-06T11:40:16;6.90;;;4.17;;
16577;SDS011;8401;52.528;13.340;2022-11-06T11:42:51;5.77;;;4.17;;
16577;SDS011;8401;52.528;13.340;2022-11-06T11:45:20;4.87;;;3.43;;
16577;SDS011;8401;52.528;13.340;2022-11-06T11:47:49;6.97;;;4.03;;
16577;SDS011;8401;52.528;13.340;2022-11-06T11:50:16;5.30;;;3.67;;
16577;SDS011;8401;52.528;13.340;2022-11-06T11:52:48;5.23;;;3.97;;
16577;SDS011;8401;52.528;13.340;2022-11-06T11:55:17;4.73;;;3.73;;
16577;SDS011;8401;52.528;13.340;2022-11-06T11:57:46;5.50;;;4.20;;
16577;SDS011;8401;52.528;13.340;2022-11-06T12:00:16;5.77;;;3.40;;
16577;SDS011;8401;52.528;13.340;2022-11-06T12:02:46;8.63;;;4.77;;
16577;SDS011;8401;52.528;13.340;2022-11-06T12:05:16;8.53;;;4.93;;
16577;SDS011;8401;52.528;13.340;2022-11-06T12:07:47;7.93;;;4.37;;
16577;SDS011;8401;52.528;13.340;2022-11-06T12:13:05;5.77;;;3.83;;
16577;SDS011;8401;52.528;13.340;2022-11-06T12:18:21;7.60;;;4.20;;
16577;SDS011;8401;52.528;13.340;2022-11-06T12:21:04;5.60;;;3.40;;
16577;SDS011;8401;52.528;13.340;2022-11-06T12:23:39;6.93;;;3.47;;
16577;SDS011;8401;52.528;13.340;2022-11-06T12:29:06;6.97;;;3.27;;
16577;SDS011;8401;52.528;13.340;2022-11-06T12:31:46;6.07;;;3.80;;
16577;SDS011;8401;52.528;13.340;2022-11-06T12:37:37;7.10;;;3.60;;
16577;SDS011;8401;52.528;13.340;2022-11-06T12:40:33;4.50;;;3.13;;
16577;SDS011;8401;52.528;13.340;2022-11-06T12:43:08;4.63;;;3.37;;
16577;SDS011;8401;52.528;13.340;2022-11-06T12:45:46;6.53;;;3.47;;
16577;SDS011;8401;52.528;13.340;2022-11-06T12:51:00;9.27;;;4.50;;
16577;SDS011;8401;52.528;13.340;2022-11-06T12:59:04;4.67;;;3.00;;
16577;SDS011;8401;52.528;13.340;2022-11-06T13:01:53;3.90;;;2.93;;
16577;SDS011;8401;52.528;13.340;2022-11-06T13:04:27;5.23;;;2.80;;
16577;SDS011;8401;52.528;13.340;2022-11-06T13:07:07;6.43;;;3.67;;
16577;SDS011;8401;52.528;13.340;2022-11-06T13:09:40;4.13;;;3.37;;
16577;SDS011;8401;52.528;13.340;2022-11-06T13:12:23;5.47;;;3.23;;
16577;SDS011;8401;52.528;13.340;2022-11-06T13:22:50;3.90;;;2.60;;
16577;SDS011;8401;52.528;13.340;2022-11-06T13:28:04;7.33;;;3.30;;
16577;SDS011;8401;52.528;13.340;2022-11-06T13:30:46;5.27;;;3.03;;
16577;SDS011;8401;52.528;13.340;2022-11-06T13:33:18;4.07;;;3.00;;
16577;SDS011;8401;52.528;13.340;2022-11-06T13:35:46;5.10;;;3.50;;
16577;SDS011;8401;52.528;13.340;2022-11-06T13:38:16;5.40;;;3.47;;
16577;SDS011;8401;52.528;13.340;2022-11-06T13:40:54;5.67;;;2.90;;
16577;SDS011;8401;52.528;13.340;2022-11-06T13:43:29;6.83;;;3.00;;
16577;SDS011;8401;52.528;13.340;2022-11-06T13:54:19;3.83;;;2.57;;
16577;SDS011;8401;52.528;13.340;2022-11-06T13:59:55;6.80;;;3.10;;
16577;SDS011;8401;52.528;13.340;2022-11-06T14:11:05;3.30;;;2.53;;
16577;SDS011;8401;52.528;13.340;2022-11-06T14:13:37;5.23;;;2.90;;
16577;SDS011;8401;52.528;13.340;2022-11-06T14:16:04;4.07;;;2.47;;
16577;SDS011;8401;52.528;13.340;2022-11-06T14:18:35;7.03;;;3.43;;
16577;SDS011;8401;52.528;13.340;2022-11-06T14:23:54;5.50;;;3.20;;
16577;SDS011;8401;52.528;13.340;2022-11-06T14:34:45;5.63;;;2.80;;
16577;SDS011;8401;52.528;13.340;2022-11-06T14:42:30;3.80;;;2.60;;
16577;SDS011;8401;52.528;13.340;2022-11-06T14:45:00;7.97;;;2.80;;
16577;SDS011;8401;52.528;13.340;2022-11-06T14:47:40;7.37;;;3.20;;
16577;SDS011;8401;52.528;13.340;2022-11-06T14:50:24;4.50;;;2.80;;
16577;SDS011;8401;52.528;13.340;2022-11-06T14:53:04;4.43;;;2.83;;
16577;SDS011;8401;52.528;13.340;2022-11-06T14:55:45;4.60;;;2.90;;
16577;SDS011;8401;52.528;13.340;2022-11-06T14:58:26;4.43;;;2.83;;
16577;SDS011;8401;52.528;13.340;2022-11-06T15:13:53;4.93;;;2.70;;
16577;SDS011;8401;52.528;13.340;2022-11-06T15:22:32;4.50;;;3.20;;
16577;SDS011;8401;52.528;13.340;2022-11-06T15:25:20;5.47;;;2.63;;
16577;SDS011;8401;52.528;13.340;2022-11-06T15:28:10;6.13;;;3.20;;
16577;SDS011;8401;52.528;13.340;2022-11-06T15:30:47;5.43;;;3.07;;
16577;SDS011;8401;52.528;13.340;2022-11-06T15:33:24;4.40;;;2.97;;
16577;SDS011;8401;52.528;13.340;2022-11-06T15:35:54;5.77;;;2.80;;
16577;SDS011;8401;52.528;13.340;2022-11-06T15:38:33;5.73;;;2.90;;
16577;SDS011;8401;52.528;13.340;2022-11-06T15:41:04;6.27;;;3.30;;
16577;SDS011;8401;52.528;13.340;2022-11-06T15:43:32;7.30;;;3.00;;
16577;SDS011;8401;52.528;13.340;2022-11-06T15:46:04;6.80;;;3.30;;
16577;SDS011;8401;52.528;13.340;2022-11-06T15:48:30;8.07;;;3.00;;
16577;SDS011;8401;52.528;13.340;2022-11-06T15:50:55;7.00;;;3.40;;
16577;SDS011;8401;52.528;13.340;2022-11-06T15:53:22;6.40;;;3.43;;
16577;SDS011;8401;52.528;13.340;2022-11-06T15:55:52;6.67;;;3.20;;
16577;SDS011;8401;52.528;13.340;2022-11-06T16:00:45;6.07;;;3.60;;
16577;SDS011;8401;52.528;13.340;2022-11-06T16:03:22;5.43;;;3.60;;
16577;SDS011;8401;52.528;13.340;2022-11-06T16:05:50;8.40;;;2.93;;
16577;SDS011;8401;52.528;13.340;2022-11-06T16:08:18;7.07;;;3.67;;
16577;SDS011;8401;52.528;13.340;2022-11-06T16:10:46;3.93;;;3.10;;
16577;SDS011;8401;52.528;13.340;2022-11-06T16:13:16;5.40;;;3.40;;
16577;SDS011;8401;52.528;13.340;2022-11-06T16:15:47;4.30;;;3.50;;
16577;SDS011;8401;52.528;13.340;2022-11-06T16:18:31;6.23;;;3.87;;
16577;SDS011;8401;52.528;13.340;2022-11-06T16:23:45;6.53;;;3.83;;
16577;SDS011;8401;52.528;13.340;2022-11-06T16:28:56;8.77;;;4.10;;
16577;SDS011;8401;52.528;13.340;2022-11-06T16:31:27;13.10;;;6.30;;
16577;SDS011;8401;52.528;13.340;2022-11-06T16:36:22;7.83;;;4.60;;
16577;SDS011;8401;52.528;13.340;2022-11-06T16:38:49;8.03;;;3.70;;
16577;SDS011;8401;52.528;13.340;2022-11-06T16:41:17;8.37;;;4.40;;
16577;SDS011;8401;52.528;13.340;2022-11-06T16:49:35;9.47;;;4.90;;
16577;SDS011;8401;52.528;13.340;2022-11-06T16:52:48;11.03;;;5.50;;
16577;SDS011;8401;52.528;13.340;2022-11-06T16:59:57;4.20;;;3.67;;
16577;SDS011;8401;52.528;13.340;2022-11-06T17:02:42;7.13;;;4.33;;
16577;SDS011;8401;52.528;13.340;2022-11-06T17:05:16;5.73;;;4.00;;
16577;SDS011;8401;52.528;13.340;2022-11-06T17:07:44;7.20;;;4.10;;
16577;SDS011;8401;52.528;13.340;2022-11-06T17:10:31;6.93;;;4.63;;
16577;SDS011;8401;52.528;13.340;2022-11-06T17:13:13;6.67;;;4.23;;
16577;SDS011;8401;52.528;13.340;2022-11-06T17:15:42;7.60;;;5.07;;
16577;SDS011;8401;52.528;13.340;2022-11-06T17:18:11;6.13;;;4.80;;
16577;SDS011;8401;52.528;13.340;2022-11-06T17:20:42;6.60;;;3.73;;
16577;SDS011;8401;52.528;13.340;2022-11-06T17:23:09;6.83;;;4.83;;
16577;SDS011;8401;52.528;13.340;2022-11-06T17:25:35;5.80;;;3.40;;
16577;SDS011;8401;52.528;13.340;2022-11-06T17:28:01;7.17;;;4.03;;
16577;SDS011;8401;52.528;13.340;2022-11-06T17:30:26;5.23;;;3.80;;
16577;SDS011;8401;52.528;13.340;2022-11-06T17:32:52;6.20;;;4.40;;
16577;SDS011;8401;52.528;13.340;2022-11-06T17:35:18;9.80;;;3.83;;
16577;SDS011;8401;52.528;13.340;2022-11-06T17:37:43;5.33;;;4.03;;
16577;SDS011;8401;52.528;13.340;2022-11-06T17:40:09;5.07;;;3.07;;
16577;SDS011;8401;52.528;13.340;2022-11-06T17:42:35;7.13;;;4.73;;
16577;SDS011;8401;52.528;13.340;2022-11-06T17:45:01;6.03;;;4.33;;